Архив погоды в Апуке

Метеограмма Апука
Воскресенье, 24 Сентября
Время местн. Темп Ветер Видим Явления Облачность нижн/средн/верх Атм. давл. Влжн Точка росы ВНГО R Сост. почвы Tg s
Напр Скр Прв ур.ст ур.м изм
09:00 +7.2° Ю 2 - 20 км - облачно 764 764 +0.2 74% +2.9° 1 км 0 Влажная (без луж) +5° -
06:00 +4.5° С,С-В 2 - 20 км - облачно с прояснениями 764 764 -0.8 81% +1.5° 1 км - - - -
03:00 +4.6° Ю 2 - 20 км - переменная облачность 765 - -0.2 81% +1.6° 1 км - - - -
00:00 +4.9° Ю 2 - 20 км - переменная облачность 765 765 -0.1 81% +1.9° 1 км - - - -
Суббота, 23 Сентября
Время местн. Темп Ветер Видим Явления Облачность нижн/средн/верх Атм. давл. Влжн Точка росы ВНГО R Сост. почвы Tg s
Напр Скр Прв ур.ст ур.м изм
21:00 +5.4° Ю 4 - 20 км - облачно 765 765 -1 82% +2.5° 1 км 0 - - -
18:00 +7.2° Ю-З 2 - 20 км - преимущественно облачно 766 766 - 78% +3.7° 1 км - - - -
15:00 +7.8° Ю 2 - 20 км - преимущественно облачно 766 766 0 79% +4.4° 1 км - - - -
12:00 +7.4° Ю 2 - 20 км - облачно 766 766 +0.2 80% +4.2° 1 км - - - -
09:00 +6.6° Ю 2 - 20 км - переменная облачность 766 766 -0.9 81% +3.5° 1 км 0 - - -
06:00 +5.9° Ю-З 2 - 20 км - облачно 767 767 -0.5 77% +2.1° 1 км - - - -
03:00 +4.4° Ю 4 - 20 км - облачно 767 768 -0.3 80% +1.3° 1 км - - - -
00:00 +4.9° В 2 - 20 км - облачно 767 768 +0.2 81% +1.9° 1 км - - - -
Пятница, 22 Сентября
Время местн. Темп Ветер Видим Явления Облачность нижн/средн/верх Атм. давл. Влжн Точка росы ВНГО R Сост. почвы Tg s
Напр Скр Прв ур.ст ур.м изм
21:00 +5.1° Ю-В 4 - 20 км - облачно 767 768 -0.2 80% +1.9° 1 км 0 - - -
18:00 +7.1° Ю-В 4 - 20 км - облачно 767 768 -1 76% +3.1° 1 км - - - -
15:00 +7.4° Ю 6 - более 50 км - преимущественно облачно 768 769 -0.2 77% +3.7° 1 км - - - -
12:00 +7.1° Ю 6 - 20 км - преимущественно облачно 769 769 0 77% +3.3° 1 км - - - -
09:00 +6° В 4 - более 50 км - преимущественно облачно 769 769 +0.3 77% +2.3° 1 км 0 Влажная (без луж) +5° -
06:00 +3.8° Ю-В 2 - 20 км - облачно с прояснениями 768 769 0 80% +0.7° 1 км - - - -
03:00 +4° С,С-В 2 - 20 км - облачно 768 769 0 78% +0.6° 1 км - - - -
00:00 +4.1° С,С-В 2 - 20 км - облачно 768 769 +0.2 80% +1° 1 км - - - -
Четверг, 21 Сентября
Время местн. Темп Ветер Видим Явления Облачность нижн/средн/верх Атм. давл. Влжн Точка росы ВНГО R Сост. почвы Tg s
Напр Скр Прв ур.ст ур.м изм
21:00 +5° В 4 - 3.8 км - облачно 768 766 +0.4 78% +1.5° 1 км 0 - - -
18:00 +7° В 6 - 20 км - облачно 768 768 +0.1 77% +3.2° 1 км - - - -
15:00 +8.4° В 4 - 20 км - преимущественно облачно 768 768 -0.2 78% +4.8° 1 км - - - -
12:00 +8° В 4 - 20 км - преимущественно облачно 768 768 0 80% +4.8° 1 км - - - -
09:00 +6.8° В 6 - 20 км - преимущественно облачно 768 768 +0.7 81% +3.8° 1 км 0 - - -
06:00 +5.1° В 6 - 20 км - преимущественно облачно 767 768 -0.2 81% +2.1° 1 км - - - -